Time;durP1;ratioP1;P1;durP2;ratioP2;P2;SDS_P1;SDS_P2;PMS_P1;PMS_P2;Temp;Humidity;BMP_temperature;BMP_pressure;BME280_temperature;BME280_humidity;BME280_pressure;Samples;Min_cycle;Max_cycle;Signal;HPM_P1;HPM_P2
2021/09/11 00:01:53;;;;;;;10.50;7.55;;;;;;;19.60;74.22;100524.88;5041836;28;20044;-76
2021/09/11 00:04:18;;;;;;;9.73;8.23;;;;;;;19.54;74.87;100520.63;5040023;28;20439;-76
2021/09/11 00:06:43;;;;;;;11.18;7.97;;;;;;;19.48;75.01;100531.63;5042282;28;20029;-75
2021/09/11 00:09:09;;;;;;;10.27;7.90;;;;;;;19.45;75.17;100534.44;5030676;28;20113;-77
2021/09/11 00:11:34;;;;;;;8.15;7.03;;;;;;;19.46;74.89;100533.47;5054722;28;20060;-78
2021/09/11 00:14:00;;;;;;;11.70;7.72;;;;;;;19.45;75.11;100537.09;5042912;28;20033;-76
2021/09/11 00:16:25;;;;;;;9.52;7.28;;;;;;;19.39;74.59;100532.91;5021763;28;20055;-76
2021/09/11 00:18:51;;;;;;;9.27;6.63;;;;;;;19.37;75.14;100539.25;5049408;28;20037;-76
2021/09/11 00:21:16;;;;;;;10.20;7.93;;;;;;;19.32;74.91;100531.41;5053134;28;20057;-77
2021/09/11 00:23:42;;;;;;;10.73;7.35;;;;;;;19.28;74.53;100535.13;5030827;28;20099;-76
2021/09/11 00:26:07;;;;;;;8.82;6.95;;;;;;;19.15;75.56;100539.25;5042774;28;20033;-76
2021/09/11 00:28:33;;;;;;;8.60;7.18;;;;;;;19.04;75.36;100542.38;5041170;28;20473;-76
2021/09/11 00:30:58;;;;;;;9.10;7.00;;;;;;;19.00;75.16;100536.28;5040384;28;20052;-76
2021/09/11 00:33:26;;;;;;;8.00;7.03;;;;;;;18.99;75.50;100544.38;5043895;28;20037;-76
2021/09/11 00:35:51;;;;;;;8.05;7.22;;;;;;;18.98;75.26;100537.28;5046930;28;20040;-76
2021/09/11 00:38:16;;;;;;;9.32;7.13;;;;;;;19.01;75.20;100542.50;5043709;28;20037;-75
2021/09/11 00:40:42;;;;;;;9.65;7.10;;;;;;;18.99;75.14;100533.66;5044989;28;20025;-76
2021/09/11 00:43:07;;;;;;;10.55;7.55;;;;;;;18.97;74.88;100532.88;5045689;28;20410;-76
2021/09/11 00:45:32;;;;;;;8.27;7.25;;;;;;;18.96;75.07;100528.44;5047659;28;20368;-76
2021/09/11 00:47:57;;;;;;;8.82;7.43;;;;;;;18.91;75.39;100533.97;5043332;28;20700;-76
2021/09/11 00:50:23;;;;;;;8.07;6.90;;;;;;;18.87;75.10;100534.19;5045564;28;20802;-76
2021/09/11 00:52:49;;;;;;;10.23;7.47;;;;;;;18.80;75.20;100529.06;5043887;28;20029;-76
2021/09/11 00:55:16;;;;;;;9.68;8.55;;;;;;;18.70;75.36;100541.03;5044611;28;20225;-76
2021/09/11 00:57:44;;;;;;;9.80;7.55;;;;;;;18.64;75.53;100527.06;5044130;28;20029;-76
2021/09/11 01:00:10;;;;;;;10.73;7.10;;;;;;;18.54;75.59;100534.56;5044406;28;20037;-76
2021/09/11 01:02:36;;;;;;;8.95;6.78;;;;;;;18.46;75.99;100531.31;5044329;28;20399;-76
2021/09/11 01:05:05;;;;;;;12.93;9.48;;;;;;;18.32;77.00;100535.38;5044034;28;20048;-76
2021/09/11 01:07:31;;;;;;;9.32;7.70;;;;;;;18.24;77.27;100534.81;5044408;28;20135;-76
2021/09/11 01:09:58;;;;;;;8.25;7.13;;;;;;;18.27;77.41;100529.34;5043618;28;20499;-76
2021/09/11 01:12:23;;;;;;;9.35;6.75;;;;;;;18.25;77.12;100536.53;5044846;28;20037;-76
2021/09/11 01:14:49;;;;;;;9.48;6.50;;;;;;;18.10;77.15;100531.78;5043096;28;20442;-77
2021/09/11 01:17:15;;;;;;;8.82;6.18;;;;;;;18.05;77.63;100533.72;5045425;28;20025;-76
2021/09/11 01:19:41;;;;;;;8.98;6.97;;;;;;;17.93;78.09;100538.59;5042534;28;20112;-76
2021/09/11 01:22:20;;;;;;;10.43;7.68;;;;;;;17.93;78.52;100532.41;5045902;28;20134;-77
2021/09/11 01:24:52;;;;;;;11.10;7.47;;;;;;;17.95;78.42;100533.22;5045935;28;20412;-76
2021/09/11 01:27:18;;;;;;;11.55;7.00;;;;;;;17.90;78.09;100540.53;5044009;28;20038;-77
2021/09/11 01:29:54;;;;;;;8.38;6.75;;;;;;;17.82;79.11;100543.47;5044121;28;20052;-77
2021/09/11 01:32:21;;;;;;;8.60;7.63;;;;;;;17.76;79.17;100551.66;5044779;28;20052;-76
2021/09/11 01:34:46;;;;;;;10.65;8.00;;;;;;;17.76;79.22;100548.97;5042722;28;20043;-77
2021/09/11 01:37:11;;;;;;;10.00;7.85;;;;;;;17.80;79.64;100548.00;5044151;28;20037;-76
2021/09/11 01:39:37;;;;;;;7.35;6.35;;;;;;;17.90;79.14;100541.41;5043701;28;20426;-77
2021/09/11 01:42:05;;;;;;;11.13;8.00;;;;;;;17.96;79.56;100542.97;5043424;28;20041;-77
2021/09/11 01:44:30;;;;;;;8.70;7.80;;;;;;;18.01;79.24;100549.00;5043652;28;20475;-77
2021/09/11 01:46:55;;;;;;;10.23;8.07;;;;;;;18.04;79.13;100551.56;5042861;28;20076;-77
2021/09/11 01:49:21;;;;;;;9.32;8.20;;;;;;;18.07;78.95;100550.59;5044664;28;20029;-76
2021/09/11 01:51:47;;;;;;;10.63;8.30;;;;;;;18.09;79.00;100552.28;5041970;28;20044;-76
2021/09/11 01:54:12;;;;;;;12.35;9.25;;;;;;;18.12;79.05;100551.28;5044607;28;20040;-76
2021/09/11 01:56:37;;;;;;;10.98;7.85;;;;;;;18.10;78.80;100550.47;5041433;28;20540;-76
2021/09/11 01:59:03;;;;;;;13.48;7.88;;;;;;;18.00;79.99;100547.28;5045045;28;20037;-75
2021/09/11 02:01:28;;;;;;;8.93;8.02;;;;;;;17.99;79.14;100550.00;5042017;28;20067;-76
2021/09/11 02:03:54;;;;;;;8.13;7.13;;;;;;;18.00;78.94;100552.63;5043822;28;20044;-77
2021/09/11 02:06:21;;;;;;;10.90;8.43;;;;;;;18.00;79.74;100554.41;5042614;28;20033;-76
2021/09/11 02:08:47;;;;;;;11.63;8.15;;;;;;;18.03;79.24;100556.97;5043777;28;20384;-76
2021/09/11 02:11:12;;;;;;;9.82;7.28;;;;;;;17.99;79.10;100555.34;5050810;28;20123;-77
2021/09/11 02:13:37;;;;;;;13.15;9.05;;;;;;;17.95;79.34;100570.59;5042787;28;20041;-76
2021/09/11 02:16:03;;;;;;;10.38;8.05;;;;;;;17.98;79.12;100569.63;5043415;28;20033;-76
2021/09/11 02:18:28;;;;;;;8.57;7.65;;;;;;;18.02;79.38;100560.56;5032639;28;20040;-76
2021/09/11 02:20:55;;;;;;;10.50;7.65;;;;;;;18.04;79.15;100558.72;5044138;28;20040;-76
2021/09/11 02:23:20;;;;;;;12.05;8.98;;;;;;;18.03;79.03;100567.66;5040987;28;20037;-76
2021/09/11 02:25:46;;;;;;;9.52;7.70;;;;;;;17.99;78.81;100556.19;5044339;28;20040;-77
2021/09/11 02:28:11;;;;;;;9.63;7.80;;;;;;;17.95;78.83;100567.94;5041036;28;20408;-77
2021/09/11 02:30:36;;;;;;;11.30;8.23;;;;;;;17.96;79.09;100556.31;5042801;28;20491;-75
2021/09/11 02:33:02;;;;;;;9.82;8.50;;;;;;;17.94;79.06;100561.69;5047276;28;20043;-76
2021/09/11 02:35:27;;;;;;;12.05;8.10;;;;;;;17.94;79.05;100559.03;5044634;28;20041;-76
2021/09/11 02:37:53;;;;;;;9.00;8.02;;;;;;;17.92;78.58;100560.00;5042178;28;20041;-76
2021/09/11 02:40:18;;;;;;;10.23;8.00;;;;;;;17.87;79.33;100556.66;5047442;28;20470;-76
2021/09/11 02:42:43;;;;;;;9.52;7.47;;;;;;;17.83;78.97;100563.03;5060299;28;20028;-76
2021/09/11 02:45:09;;;;;;;8.30;7.10;;;;;;;17.80;79.00;100564.00;5025409;28;20120;-76
2021/09/11 02:47:35;;;;;;;9.05;7.38;;;;;;;17.78;79.14;100563.16;5041267;28;20022;-76
2021/09/11 02:50:00;;;;;;;11.13;7.50;;;;;;;17.71;78.80;100564.28;5043475;28;20110;-76
2021/09/11 02:52:25;;;;;;;9.10;8.20;;;;;;;17.62;79.10;100567.28;5040585;28;20048;-77
2021/09/11 02:54:51;;;;;;;10.82;8.68;;;;;;;17.54;79.98;100572.88;5035588;28;20041;-77
2021/09/11 02:57:16;;;;;;;9.38;7.60;;;;;;;17.47;80.35;100580.22;5040330;28;20037;-77
2021/09/11 02:59:41;;;;;;;8.88;7.40;;;;;;;17.44;80.19;100580.31;5043508;28;20029;-76
2021/09/11 03:02:07;;;;;;;11.80;8.98;;;;;;;17.44;80.37;100580.31;5040667;28;20495;-77
2021/09/11 03:04:32;;;;;;;8.75;7.80;;;;;;;17.47;80.66;100577.53;5042287;28;20467;-77
2021/09/11 03:06:57;;;;;;;11.40;7.97;;;;;;;17.50;80.79;100581.91;5047739;28;20025;-76
2021/09/11 03:09:23;;;;;;;9.07;7.55;;;;;;;17.51;80.25;100576.53;5042022;28;20041;-77
2021/09/11 03:11:48;;;;;;;10.50;9.40;;;;;;;17.60;80.62;100579.81;5041305;28;20080;-76
2021/09/11 03:14:13;;;;;;;12.05;10.57;;;;;;;17.69;80.47;100585.72;5042450;28;20029;-77
2021/09/11 03:16:39;;;;;;;10.90;9.02;;;;;;;17.81;80.32;100584.44;5040232;28;20096;-76
2021/09/11 03:19:04;;;;;;;10.75;8.82;;;;;;;17.90;80.01;100584.13;5043306;28;20037;-76
2021/09/11 03:21:29;;;;;;;13.48;9.80;;;;;;;17.92;80.06;100592.06;5044524;28;20120;-77
2021/09/11 03:23:55;;;;;;;10.07;8.73;;;;;;;18.01;79.77;100589.06;5048876;28;20073;-77
2021/09/11 03:26:20;;;;;;;10.38;9.25;;;;;;;18.09;79.46;100594.13;5048357;28;20521;-75
2021/09/11 03:28:45;;;;;;;11.57;8.63;;;;;;;18.14;79.54;100579.69;5044826;28;20557;-77
2021/09/11 03:31:10;;;;;;;8.05;7.22;;;;;;;18.23;78.92;100581.13;5042308;28;20479;-76
2021/09/11 03:33:36;;;;;;;10.20;8.70;;;;;;;18.24;78.70;100571.34;5040962;28;20033;-77
2021/09/11 03:36:01;;;;;;;11.00;9.20;;;;;;;18.28;78.75;100579.16;5041264;28;20619;-76
2021/09/11 03:38:26;;;;;;;10.95;9.30;;;;;;;18.34;79.08;100584.31;5041822;28;20024;-77
2021/09/11 03:40:52;;;;;;;12.88;9.40;;;;;;;18.40;78.90;100578.72;5040590;28;20144;-77
2021/09/11 03:43:17;;;;;;;13.07;9.27;;;;;;;18.50;78.60;100578.38;5042363;28;20098;-76
2021/09/11 03:45:42;;;;;;;9.38;8.38;;;;;;;18.57;77.90;100570.03;5039611;28;20041;-76
2021/09/11 03:48:08;;;;;;;10.27;8.25;;;;;;;18.57;78.01;100579.88;5043091;28;20029;-77
2021/09/11 03:50:33;;;;;;;11.52;8.50;;;;;;;18.58;77.60;100586.97;5039498;28;20049;-77
2021/09/11 03:52:58;;;;;;;10.45;9.30;;;;;;;18.52;77.96;100582.72;5041184;28;20044;-76
2021/09/11 03:55:24;;;;;;;10.70;8.85;;;;;;;18.49;78.26;100587.31;5050050;28;20048;-76
2021/09/11 03:57:49;;;;;;;10.20;8.52;;;;;;;18.44;78.48;100595.50;5042911;28;20034;-76
2021/09/11 04:00:14;;;;;;;11.02;8.93;;;;;;;18.37;78.70;100589.53;5040805;28;20032;-78
2021/09/11 04:02:40;;;;;;;12.23;9.50;;;;;;;18.37;78.52;100594.88;5048483;28;20520;-76
2021/09/11 04:05:05;;;;;;;10.48;9.27;;;;;;;18.28;79.12;100592.53;5044325;28;20036;-76
2021/09/11 04:07:31;;;;;;;10.95;9.85;;;;;;;18.24;79.53;100582.91;5040532;28;20392;-76
2021/09/11 04:09:56;;;;;;;10.75;9.48;;;;;;;18.28;79.47;100588.97;5042343;28;20048;-77
2021/09/11 04:12:21;;;;;;;13.15;10.32;;;;;;;18.26;80.06;100589.06;5039642;28;20033;-77
2021/09/11 04:14:47;;;;;;;14.20;11.30;;;;;;;18.31;80.46;100594.22;5045087;28;20038;-76
2021/09/11 04:17:12;;;;;;;12.75;10.68;;;;;;;18.34;80.69;100592.31;5043145;28;20044;-77
2021/09/11 04:19:37;;;;;;;12.60;10.55;;;;;;;18.39;80.44;100592.13;5046525;28;20045;-76
2021/09/11 04:22:03;;;;;;;13.63;11.52;;;;;;;18.51;80.09;100596.16;5044013;28;20048;-77
2021/09/11 04:24:28;;;;;;;13.38;11.20;;;;;;;18.61;80.06;100602.88;5045480;28;20037;-76
2021/09/11 04:26:54;;;;;;;11.85;10.60;;;;;;;18.69;79.91;100599.91;5026792;28;20490;-76
2021/09/11 04:29:19;;;;;;;12.00;10.52;;;;;;;18.75;79.52;100602.38;5044998;28;20045;-77
2021/09/11 04:31:44;;;;;;;12.13;10.90;;;;;;;18.76;79.36;100599.66;5045352;28;20544;-76
2021/09/11 04:34:09;;;;;;;16.08;11.95;;;;;;;18.76;79.30;100590.78;5043829;28;20402;-76
2021/09/11 04:36:35;;;;;;;12.48;11.18;;;;;;;18.78;79.37;100597.78;5045641;28;20518;-76
2021/09/11 04:39:00;;;;;;;12.52;11.23;;;;;;;18.78;79.04;100600.44;5043251;28;20410;-75
2021/09/11 04:41:25;;;;;;;12.40;11.15;;;;;;;18.80;79.05;100603.94;5045264;28;20040;-75
2021/09/11 04:43:51;;;;;;;12.88;11.55;;;;;;;18.87;78.33;100603.72;5046001;28;20056;-76
2021/09/11 04:46:16;;;;;;;13.25;12.00;;;;;;;18.92;78.42;100617.78;5048113;28;20028;-76
2021/09/11 04:48:41;;;;;;;13.82;12.43;;;;;;;18.98;78.30;100606.81;5050391;28;20029;-77
2021/09/11 04:51:07;;;;;;;12.40;10.52;;;;;;;19.04;77.81;100611.91;5050355;28;20168;-77
2021/09/11 04:53:32;;;;;;;12.50;11.27;;;;;;;19.06;78.54;100618.09;5050029;28;20158;-76
2021/09/11 04:55:57;;;;;;;12.35;11.05;;;;;;;19.13;77.79;100618.72;5048892;28;20045;-77
2021/09/11 04:58:24;;;;;;;13.73;11.52;;;;;;;19.21;77.55;100619.28;5044224;28;20049;-77
2021/09/11 05:00:49;;;;;;;14.10;11.43;;;;;;;19.22;77.83;100618.34;5045061;28;20056;-76
2021/09/11 05:03:14;;;;;;;13.48;11.35;;;;;;;19.24;78.27;100620.03;5043101;28;20029;-77
2021/09/11 05:05:39;;;;;;;13.88;10.95;;;;;;;19.28;78.14;100623.44;5045530;28;20041;-77
2021/09/11 05:08:05;;;;;;;14.40;11.15;;;;;;;19.31;78.86;100617.09;5050885;28;20082;-77
2021/09/11 05:10:30;;;;;;;11.80;10.55;;;;;;;19.29;78.54;100621.66;5045960;28;20497;-76
2021/09/11 05:12:55;;;;;;;12.23;11.02;;;;;;;19.30;79.51;100618.03;5042339;28;20044;-77
2021/09/11 05:15:21;;;;;;;11.77;9.65;;;;;;;19.30;79.24;100615.34;5045407;28;20052;-77
2021/09/11 05:17:47;;;;;;;10.30;9.20;;;;;;;19.28;79.89;100615.41;5042943;28;20064;-77
2021/09/11 05:20:13;;;;;;;11.57;9.70;;;;;;;19.34;79.25;100623.19;5044651;28;20033;-76
2021/09/11 05:22:39;;;;;;;11.90;9.80;;;;;;;19.37;79.21;100614.19;5043596;28;20457;-77
2021/09/11 05:25:06;;;;;;;10.82;9.73;;;;;;;19.36;79.76;100618.66;5043792;28;20119;-76
2021/09/11 05:27:31;;;;;;;11.40;10.20;;;;;;;19.38;80.06;100622.13;5043816;28;20391;-76
2021/09/11 05:29:57;;;;;;;10.30;9.20;;;;;;;19.43;80.04;100621.94;5043548;28;20045;-75
2021/09/11 05:32:22;;;;;;;11.07;9.35;;;;;;;19.44;79.90;100619.22;5044427;28;20029;-74
2021/09/11 05:34:47;;;;;;;12.00;10.52;;;;;;;19.43;80.37;100624.63;5047160;28;20035;-76
2021/09/11 05:37:13;;;;;;;11.80;10.50;;;;;;;19.45;79.99;100630.78;5046463;28;20112;-75
2021/09/11 05:39:38;;;;;;;11.75;10.45;;;;;;;19.52;80.01;100626.94;5045495;28;20036;-77
2021/09/11 05:42:04;;;;;;;10.85;9.75;;;;;;;19.57;79.42;100624.94;5045531;28;20041;-77
2021/09/11 05:44:29;;;;;;;10.10;9.10;;;;;;;19.63;79.51;100630.03;5024235;28;20045;-76
2021/09/11 05:46:54;;;;;;;13.43;10.02;;;;;;;19.69;78.56;100635.13;5044666;28;20040;-79
2021/09/11 05:49:20;;;;;;;10.80;9.38;;;;;;;19.77;78.60;100628.59;5043380;28;20032;-77
2021/09/11 05:51:45;;;;;;;10.98;9.88;;;;;;;19.87;77.94;100629.94;5044408;28;20065;-76
2021/09/11 05:54:10;;;;;;;11.38;9.88;;;;;;;19.93;78.06;100633.22;5043220;28;20059;-77
2021/09/11 05:56:36;;;;;;;10.25;8.88;;;;;;;20.00;77.71;100630.28;5033954;28;20037;-77
2021/09/11 05:59:01;;;;;;;11.85;10.13;;;;;;;20.08;77.44;100626.31;5044581;28;20032;-77
2021/09/11 06:01:26;;;;;;;9.93;8.93;;;;;;;20.17;76.98;100626.84;5046362;28;20033;-78
2021/09/11 06:03:52;;;;;;;9.82;8.60;;;;;;;20.29;76.13;100629.00;5041978;28;20040;-78
2021/09/11 06:06:17;;;;;;;10.88;9.88;;;;;;;20.33;75.91;100634.16;5046578;28;20028;-76
2021/09/11 06:08:42;;;;;;;9.93;8.93;;;;;;;20.44;75.68;100625.63;5046249;28;20139;-77
2021/09/11 06:11:08;;;;;;;10.20;9.20;;;;;;;20.56;74.87;100630.44;5046126;28;20039;-77
2021/09/11 06:13:34;;;;;;;10.07;8.38;;;;;;;20.73;74.56;100636.84;5041783;28;20091;-77
2021/09/11 06:16:02;;;;;;;9.55;8.30;;;;;;;20.79;74.26;100632.06;5044083;28;20532;-77
2021/09/11 06:18:27;;;;;;;10.35;8.95;;;;;;;20.89;73.77;100624.44;5041000;28;20056;-78
2021/09/11 06:20:53;;;;;;;10.57;8.77;;;;;;;20.93;73.71;100633.22;5043558;28;20029;-77
2021/09/11 06:23:18;;;;;;;14.48;11.27;;;;;;;21.00;73.54;100629.31;5042621;28;20482;-77
2021/09/11 06:25:43;;;;;;;16.58;14.30;;;;;;;21.10;73.81;100632.41;5043275;28;20109;-77
2021/09/11 06:28:08;;;;;;;12.27;9.90;;;;;;;21.30;73.50;100639.47;5043928;28;20403;-77
2021/09/11 06:30:34;;;;;;;13.15;11.85;;;;;;;21.33;73.59;100624.13;5043875;28;20437;-77
2021/09/11 06:32:59;;;;;;;11.10;10.00;;;;;;;21.49;72.55;100626.06;5041279;28;20503;-78
2021/09/11 06:35:25;;;;;;;11.73;10.52;;;;;;;21.52;72.22;100624.09;5051066;28;20044;-77
2021/09/11 06:37:51;;;;;;;12.18;9.60;;;;;;;21.64;71.56;100625.28;5040284;28;20112;-78
2021/09/11 06:40:17;;;;;;;12.35;11.15;;;;;;;21.70;71.81;100627.69;5031307;28;20040;-77
2021/09/11 06:42:42;;;;;;;8.75;7.82;;;;;;;21.71;70.94;100626.72;5046260;28;20036;-77
2021/09/11 06:45:08;;;;;;;10.55;9.25;;;;;;;21.69;71.88;100633.97;5050953;28;20077;-77
2021/09/11 06:47:33;;;;;;;7.95;6.38;;;;;;;21.69;70.58;100633.97;5052006;28;20036;-77
2021/09/11 06:49:59;;;;;;;11.35;9.55;;;;;;;21.79;70.88;100629.00;5042168;28;20037;-77
2021/09/11 06:52:24;;;;;;;6.70;5.95;;;;;;;21.87;71.01;100633.03;5033482;28;20040;-78
2021/09/11 06:54:49;;;;;;;6.65;5.97;;;;;;;21.97;70.73;100633.44;5043202;28;20049;-77
2021/09/11 06:57:15;;;;;;;9.80;7.65;;;;;;;21.91;71.29;100635.59;5048287;28;20052;-77
2021/09/11 06:59:40;;;;;;;10.13;9.13;;;;;;;21.86;71.56;100649.25;5053122;28;20036;-77
2021/09/11 07:02:06;;;;;;;8.57;7.22;;;;;;;21.91;71.57;100644.50;5028743;28;20036;-78
2021/09/11 07:04:31;;;;;;;10.15;9.02;;;;;;;21.93;71.89;100649.78;5044905;28;20068;-78
2021/09/11 07:06:57;;;;;;;8.63;7.72;;;;;;;21.84;71.65;100654.69;5031709;28;20037;-77
2021/09/11 07:09:22;;;;;;;8.20;7.40;;;;;;;21.83;71.34;100654.78;5044264;28;20086;-79
2021/09/11 07:11:47;;;;;;;11.18;8.65;;;;;;;21.53;73.33;100665.25;5040004;28;20037;-78
2021/09/11 07:14:15;;;;;;;8.63;7.32;;;;;;;21.38;73.44;100666.88;5042877;28;20176;-78
2021/09/11 07:16:41;;;;;;;10.55;9.40;;;;;;;21.18;74.67;100673.19;5043433;28;20045;-78
2021/09/11 07:19:06;;;;;;;9.43;7.15;;;;;;;20.94;75.28;100673.38;5041880;28;20092;-78
2021/09/11 07:21:32;;;;;;;8.35;5.88;;;;;;;20.73;76.60;100671.72;5031717;28;20041;-78
2021/09/11 07:23:57;;;;;;;13.45;7.07;;;;;;;20.61;77.52;100691.03;5046929;28;20033;-78
2021/09/11 07:26:22;;;;;;;12.18;8.63;;;;;;;20.46;79.39;100680.03;5050300;28;20091;-79
2021/09/11 07:28:49;;;;;;;9.38;8.18;;;;;;;20.34;79.67;100683.25;5044107;28;20037;-78
2021/09/11 07:31:16;;;;;;;9.30;8.05;;;;;;;20.26;80.26;100688.09;5041880;28;20128;-79
2021/09/11 07:33:42;;;;;;;13.38;11.77;;;;;;;20.26;81.19;100680.06;5025787;28;20036;-78
2021/09/11 07:36:07;;;;;;;10.48;9.05;;;;;;;20.26;81.99;100694.31;5040600;28;20618;-79
2021/09/11 07:38:38;;;;;;;10.60;8.55;;;;;;;20.25;83.21;100695.28;5044778;28;20041;-78
2021/09/11 07:41:04;;;;;;;13.05;11.75;;;;;;;20.29;83.98;100690.63;5049607;28;20060;-78
2021/09/11 07:43:30;;;;;;;11.52;10.32;;;;;;;20.38;83.30;100700.94;5058240;28;20043;-77
2021/09/11 07:45:56;;;;;;;13.05;10.93;;;;;;;20.43;82.56;100698.91;5039461;28;20041;-78
2021/09/11 07:48:21;;;;;;;15.18;12.45;;;;;;;20.53;82.38;100704.75;5045745;28;20037;-78
2021/09/11 07:50:47;;;;;;;13.48;12.02;;;;;;;20.56;82.16;100708.19;5043563;28;20626;-79
2021/09/11 07:53:14;;;;;;;12.13;10.75;;;;;;;20.68;81.88;100711.28;5044458;28;20553;-78
2021/09/11 07:55:39;;;;;;;12.52;10.27;;;;;;;20.76;81.47;100711.81;5051812;28;20131;-78
2021/09/11 07:58:04;;;;;;;12.05;8.57;;;;;;;20.85;81.65;100724.78;5040269;28;20465;-78
2021/09/11 08:00:30;;;;;;;9.30;8.35;;;;;;;21.03;80.62;100720.38;5042413;28;20033;-78
2021/09/11 08:02:55;;;;;;;16.45;11.25;;;;;;;21.10;80.77;100721.84;5041990;28;20043;-78
2021/09/11 08:05:21;;;;;;;28.42;18.23;;;;;;;21.00;79.85;100721.38;5032579;28;20037;-78
2021/09/11 08:07:49;;;;;;;39.78;23.58;;;;;;;21.07;79.97;100722.00;5042690;28;20037;-78
2021/09/11 08:10:15;;;;;;;116.22;62.67;;;;;;;21.12;80.03;100716.41;5040748;28;20531;-75
2021/09/11 08:12:40;;;;;;;79.72;44.92;;;;;;;21.19;79.94;100720.53;5043796;28;20032;-77
2021/09/11 08:15:06;;;;;;;52.38;34.42;;;;;;;21.30;79.04;100718.22;5044061;28;20037;-78
2021/09/11 08:17:32;;;;;;;41.65;27.83;;;;;;;21.41;78.68;100715.91;5052063;28;20073;-78
2021/09/11 08:19:57;;;;;;;21.92;17.33;;;;;;;21.50;78.17;100719.09;5048463;28;20056;-78
2021/09/11 08:22:22;;;;;;;11.45;9.60;;;;;;;21.51;78.22;100718.13;5054234;28;20041;-77
2021/09/11 08:24:48;;;;;;;11.00;6.68;;;;;;;21.45;78.07;100717.50;5044143;28;20041;-77
2021/09/11 08:27:14;;;;;;;7.15;6.28;;;;;;;21.44;77.34;100720.28;5040486;28;20037;-78
2021/09/11 08:29:41;;;;;;;9.07;7.05;;;;;;;21.49;77.33;100720.06;5032359;28;20531;-77
2021/09/11 08:32:07;;;;;;;7.85;6.25;;;;;;;21.71;77.24;100715.34;5040689;28;20036;-78
2021/09/11 08:34:32;;;;;;;7.15;5.85;;;;;;;21.93;76.57;100716.97;5048259;28;20103;-78
2021/09/11 08:36:57;;;;;;;7.93;6.78;;;;;;;22.00;75.70;100715.72;5049739;28;20033;-77
2021/09/11 08:39:24;;;;;;;8.55;6.57;;;;;;;22.03;75.89;100718.25;5053064;28;20049;-77
2021/09/11 08:41:50;;;;;;;8.45;7.10;;;;;;;22.03;74.90;100718.25;5044401;28;20048;-77
2021/09/11 08:44:16;;;;;;;7.22;6.53;;;;;;;22.17;74.26;100722.94;5040575;28;20112;-78
2021/09/11 08:46:41;;;;;;;7.70;6.70;;;;;;;22.27;74.37;100727.78;5043107;28;20526;-78
2021/09/11 08:49:10;;;;;;;8.88;7.07;;;;;;;22.37;74.39;100727.28;5039503;28;20038;-77
2021/09/11 08:51:35;;;;;;;8.55;6.82;;;;;;;22.47;73.02;100729.41;5046826;28;20044;-77
2021/09/11 08:54:00;;;;;;;8.30;6.60;;;;;;;22.58;71.63;100731.53;5045031;28;20041;-78
2021/09/11 08:56:26;;;;;;;12.93;9.60;;;;;;;22.47;71.89;100728.56;5061115;28;20417;-78
2021/09/11 08:59:09;;;;;;;12.35;8.63;;;;;;;22.55;71.89;100720.94;5048258;28;20384;-76
2021/09/11 09:01:35;;;;;;;9.43;8.05;;;;;;;22.68;71.23;100731.94;5035967;28;20132;-78
2021/09/11 09:04:00;;;;;;;11.75;9.25;;;;;;;22.79;71.05;100729.53;5048738;28;20076;-77
2021/09/11 09:06:31;;;;;;;12.05;10.20;;;;;;;22.91;70.65;100726.16;5044123;28;20033;-77
2021/09/11 09:09:14;;;;;;;11.95;10.18;;;;;;;22.90;71.08;100726.28;5045616;28;20040;-78
2021/09/11 09:11:44;;;;;;;9.05;7.65;;;;;;;22.87;70.73;100721.03;5046773;28;20040;-78
2021/09/11 09:14:15;;;;;;;9.23;8.25;;;;;;;23.01;69.87;100713.13;5043713;28;20030;-77
2021/09/11 09:16:47;;;;;;;10.35;9.25;;;;;;;22.72;71.18;100723.63;5042741;28;20120;-77
2021/09/11 09:19:15;;;;;;;11.15;9.43;;;;;;;22.83;70.27;100724.88;5046965;28;20119;-77
2021/09/11 09:21:42;;;;;;;14.60;13.10;;;;;;;22.80;70.49;100720.50;5043288;28;20053;-76
2021/09/11 09:24:09;;;;;;;14.07;12.50;;;;;;;22.84;70.27;100722.06;5051292;28;20033;-78
2021/09/11 09:26:52;;;;;;;14.85;13.27;;;;;;;22.91;69.45;100728.88;5053732;28;20491;-77
2021/09/11 09:29:19;;;;;;;15.00;12.07;;;;;;;23.16;69.63;100723.03;5040381;28;20075;-78
2021/09/11 09:31:45;;;;;;;14.02;12.27;;;;;;;23.21;69.29;100732.69;5045827;28;20427;-77
2021/09/11 09:34:27;;;;;;;16.73;13.90;;;;;;;23.30;68.76;100729.47;5043726;28;20052;-77
2021/09/11 09:36:55;;;;;;;13.95;12.45;;;;;;;23.44;68.54;100720.63;5045860;28;20029;-77
2021/09/11 09:39:20;;;;;;;15.77;12.40;;;;;;;23.53;68.41;100722.81;5042150;28;20144;-75
2021/09/11 09:41:49;;;;;;;16.92;13.13;;;;;;;23.49;67.90;100723.91;5045181;28;20132;-77
2021/09/11 09:44:16;;;;;;;12.35;11.02;;;;;;;23.61;67.71;100724.09;5042201;28;20033;-76
2021/09/11 09:46:43;;;;;;;14.48;9.63;;;;;;;23.70;67.11;100716.44;5047138;28;20029;-76
2021/09/11 09:49:09;;;;;;;14.43;11.27;;;;;;;23.77;66.52;100718.72;5042321;28;20132;-75
2021/09/11 09:51:35;;;;;;;19.88;14.88;;;;;;;23.81;67.38;100719.38;5044370;28;20039;-77
2021/09/11 09:54:00;;;;;;;11.90;10.70;;;;;;;23.83;66.64;100717.47;5037565;28;20402;-76
2021/09/11 09:56:27;;;;;;;11.88;10.68;;;;;;;23.87;67.05;100724.44;5034026;28;20567;-77
2021/09/11 09:58:54;;;;;;;9.60;8.60;;;;;;;23.79;66.17;100711.41;5045064;28;20483;-77
2021/09/11 10:01:21;;;;;;;10.77;9.65;;;;;;;23.83;66.16;100723.72;5042021;28;20033;-76
2021/09/11 10:03:47;;;;;;;9.40;8.43;;;;;;;24.01;66.42;100720.94;5045205;28;20113;-77
2021/09/11 10:06:25;;;;;;;10.27;9.00;;;;;;;24.11;65.30;100718.56;5048360;28;20079;-78
2021/09/11 10:08:56;;;;;;;10.95;9.25;;;;;;;24.14;65.23;100715.69;5051258;28;20049;-77
2021/09/11 10:11:31;;;;;;;9.25;8.27;;;;;;;24.26;64.58;100720.31;5042595;28;20547;-77
2021/09/11 10:13:59;;;;;;;10.73;8.75;;;;;;;24.35;64.36;100722.47;5049931;28;20029;-77
2021/09/11 10:16:35;;;;;;;9.73;8.73;;;;;;;24.11;63.83;100718.56;5045549;28;20045;-77
2021/09/11 10:19:31;;;;;;;9.57;8.65;;;;;;;23.89;64.71;100716.25;5046085;28;20033;-77
2021/09/11 10:22:15;;;;;;;11.07;8.68;;;;;;;23.66;65.05;100717.56;5033746;28;20048;-76
2021/09/11 10:24:40;;;;;;;11.77;10.25;;;;;;;23.48;65.64;100714.97;5036288;28;20355;-78
2021/09/11 10:27:09;;;;;;;10.82;9.75;;;;;;;23.41;65.68;100713.56;5042672;28;20042;-77
2021/09/11 10:29:49;;;;;;;10.30;9.30;;;;;;;23.62;65.91;100708.78;5045142;28;20423;-77
2021/09/11 10:32:19;;;;;;;10.45;9.20;;;;;;;23.80;65.51;100706.88;5042466;28;20063;-77
2021/09/11 10:35:00;;;;;;;11.57;9.43;;;;;;;23.86;65.27;100705.66;5043110;28;20033;-77
2021/09/11 10:37:33;;;;;;;11.00;9.30;;;;;;;23.91;64.90;100707.13;5043791;28;20045;-78
2021/09/11 10:40:25;;;;;;;11.15;9.43;;;;;;;24.03;64.46;100705.53;5046170;28;20061;-77
2021/09/11 10:43:01;;;;;;;;;;;;;;;24.02;64.42;100706.47;5030656;28;20037;-76
2021/09/11 10:46:09;;;;;;;10.32;9.32;;;;;;;24.25;64.02;100710.50;5053666;28;20426;-77
2021/09/11 10:48:42;;;;;;;12.05;10.98;;;;;;;24.57;62.75;100696.91;5033621;28;20087;-78
2021/09/11 10:51:33;;;;;;;11.25;10.23;;;;;;;24.82;61.96;100701.66;5049177;28;20104;-78
2021/09/11 10:54:09;;;;;;;12.48;10.50;;;;;;;25.11;61.32;100697.94;5020010;28;20073;-78
2021/09/11 10:56:48;;;;;;;10.27;9.27;;;;;;;25.40;61.79;100694.38;5047526;28;20037;-78
2021/09/11 10:59:16;;;;;;;10.98;9.98;;;;;;;25.80;60.17;100696.13;5046722;28;20029;-78
2021/09/11 11:02:19;;;;;;;11.90;10.70;;;;;;;26.10;58.68;100689.66;5043935;28;20041;-77
2021/09/11 11:04:47;;;;;;;10.27;9.27;;;;;;;26.25;57.16;100674.19;5041926;28;20040;-78
2021/09/11 11:07:21;;;;;;;10.73;8.65;;;;;;;26.52;56.99;100676.84;5045750;28;20111;-78
2021/09/11 11:09:58;;;;;;;11.80;10.05;;;;;;;26.41;57.09;100674.03;5046966;28;20107;-78
2021/09/11 11:12:38;;;;;;;10.77;9.77;;;;;;;26.22;57.02;100661.75;5031020;28;20033;-77
2021/09/11 11:15:09;;;;;;;10.20;9.30;;;;;;;25.98;58.55;100671.56;5045814;28;20044;-79
2021/09/11 11:17:41;;;;;;;11.27;9.32;;;;;;;25.51;59.90;100671.06;5046936;28;20466;-79